Marquette, MI

7:22 PM EDT on March 26, 2015 (GMT -0400)
Harvey, MI | | Change Station
CLOSE
Current Station
Personal Weather Station
Location: Marquette, MI
Elevation: 725 ft
Nearby Weather Stations

Elev 725 ft 46.47 °N, 87.37 °W | Updated 1 minute ago

Overcast
Overcast
21.4 °F
Feels Like 21 °F
N
1.0
Wind Variable Wind from NNW
Gusts 10.0 mph

Today
High -- | Low -- °F
--% Chance of Precip.
Yesterday
High -- | Low -- °F
Precip. -- in
7:41 AM 8:09 PM
Waxing Crescent, 46% visible
Pressure 30.02 in
Visibility 2.5 miles
Clouds Scattered Clouds 900 ft
Scattered Clouds 1600 ft
Overcast 2800 ft
Windchill 21 °F
Dew Point 11 °F
Humidity 65%
Rainfall 0.00 in
Snow Depth Not available.
UV 0.0 out of 12
Pollen 3.40 out of 12
Air Quality Not available.
Flu Activity Not available.
METAR KSAW 262245Z 35013G20KT 2 1/2SM -SN SCT009 SCT016 OVC028 M08/M11 A3002

More Conditions Fewer Conditions

Pressure 30.02 in
Visibility 2.5 miles
Clouds Scattered Clouds 900 ft
Scattered Clouds 1600 ft
Overcast 2800 ft
Windchill 21 °F
Dew Point 11 °F
Humidity 65%
Rainfall 0.00 in
Snow Depth Not available.
UV 0.0 out of 12
Pollen 3.40 out of 12
Air Quality Not available.
Flu Activity Not available.
METAR KSAW 262245Z 35013G20KT 2 1/2SM -SN SCT009 SCT016 OVC028 M08/M11 A3002

More Conditions Fewer Conditions

10-Day Weather Forecast

Almanac

Astronomy

Mar. 26, 2015 Rise Set
Actual Time
Civil Twilight
Nautical Twilight
Astronomical Twilight
Moon
Length of Visible Light
Length of Day
Tomorrow will be .
, % of the Moon is Illuminated

Today's Extremes

State Highs State Lows

Community

WunderPhotos

Upload Photos

1,808,635 photos uploaded!

WunderBlogs® & News

Nearby

Air Quality

  Air Quality AQ Index Pollutant
Not available.

Snow Depth

Station Depth Elevation

Earthquake Activity

City Distance Mag. Time & Date
Minimum magnitude displayed is 2.5.

Coastal Water Temperatures

Place Temperature

Stations

Nearby Weather Stations

Station Location Temp. Windchill Dew Point Humidity Wind Precip. Elev Updated Type